createdAt,value
2023-02-02T00:01:54.399Z,101784.91
2023-02-02T00:04:25.152Z,101790.91
2023-02-02T00:06:53.935Z,101790.91
2023-02-02T00:09:22.875Z,101775.19
2023-02-02T00:11:51.996Z,101782.03
2023-02-02T00:14:22.030Z,101785.44
2023-02-02T00:16:51.899Z,101789.66
2023-02-02T00:19:23.052Z,101788.63
2023-02-02T00:21:51.640Z,101796.31
2023-02-02T00:24:20.884Z,101794.47
2023-02-02T00:26:53.114Z,101776.13
2023-02-02T00:29:25.352Z,101795.09
2023-02-02T00:31:54.285Z,101800.16
2023-02-02T00:34:23.573Z,101800.25
2023-02-02T00:36:52.886Z,101803.72
2023-02-02T00:39:25.396Z,101810.56
2023-02-02T00:41:53.904Z,101810.56
2023-02-02T00:44:41.667Z,101814.09
2023-02-02T00:47:10.082Z,101808.91
2023-02-02T00:49:38.380Z,101816.13
2023-02-02T00:52:07.029Z,101806.69
2023-02-02T00:54:35.432Z,101811.03
2023-02-02T00:57:03.964Z,101812.84
2023-02-02T00:59:33.882Z,101808.63
2023-02-02T01:02:02.261Z,101817.38
2023-02-02T01:04:30.788Z,101805.31
2023-02-02T01:06:59.153Z,101820.06
2023-02-02T01:09:27.591Z,101819.22
2023-02-02T01:11:56.073Z,101816.75
2023-02-02T01:14:24.577Z,101816.06
2023-02-02T01:16:54.230Z,101817.91
2023-02-02T01:19:22.735Z,101823.97
2023-02-02T01:21:52.064Z,101826.66
2023-02-02T01:24:20.428Z,101822.41
2023-02-02T01:26:48.851Z,101821.63
2023-02-02T01:29:17.345Z,101835.50
2023-02-02T01:31:45.998Z,101822.59
2023-02-02T01:34:15.773Z,101826.09
2023-02-02T01:36:44.155Z,101832.25
2023-02-02T01:39:12.710Z,101840.19
2023-02-02T01:41:42.322Z,101834.16
2023-02-02T01:45:05.159Z,101838.56
2023-02-02T01:47:39.133Z,101836.88
2023-02-02T01:50:11.464Z,101840.41
2023-02-02T01:52:41.500Z,101845.66
2023-02-02T01:55:14.240Z,101838.75
2023-02-02T01:57:48.350Z,101847.50
2023-02-02T02:00:18.618Z,101856.25
2023-02-02T02:02:49.613Z,101842.44
2023-02-02T02:05:27.463Z,101850.28
2023-02-02T02:08:05.317Z,101847.66
2023-02-02T02:10:34.976Z,101846.09
2023-02-02T02:13:03.424Z,101842.66
2023-02-02T02:15:53.323Z,101840.13
2023-02-02T02:18:33.547Z,101847.06
2023-02-02T02:21:51.648Z,101842.66
2023-02-02T02:25:18.298Z,101848.78
2023-02-02T02:28:49.305Z,101840.06
2023-02-02T02:31:56.032Z,101844.47
2023-02-02T02:34:35.383Z,101832.25
2023-02-02T02:37:12.025Z,101833.28
2023-02-02T02:39:47.102Z,101830.75
2023-02-02T02:42:20.166Z,101832.75
2023-02-02T02:44:50.512Z,101838.06
2023-02-02T02:47:21.239Z,101845.28
2023-02-02T02:49:50.927Z,101842.84
2023-02-02T02:52:19.265Z,101849.06
2023-02-02T02:54:51.701Z,101852.75
2023-02-02T02:57:40.047Z,101855.50
2023-02-02T03:00:27.992Z,101860.88
2023-02-02T03:03:09.497Z,101856.66
2023-02-02T03:05:50.856Z,101866.34
2023-02-02T03:08:26.057Z,101866.50
2023-02-02T03:10:57.042Z,101871.88
2023-02-02T03:13:26.121Z,101873.72
2023-02-02T03:15:54.727Z,101866.06
2023-02-02T03:18:29.135Z,101867.09
2023-02-02T03:20:57.760Z,101868.97
2023-02-02T03:23:26.519Z,101860.41
2023-02-02T03:25:55.597Z,101870.09
2023-02-02T03:28:25.534Z,101861.53
2023-02-02T03:30:55.131Z,101861.66
2023-02-02T03:33:25.414Z,101867.91
2023-02-02T03:35:54.178Z,101855.06
2023-02-02T03:38:22.552Z,101858.69
2023-02-02T03:40:52.661Z,101863.09
2023-02-02T03:43:25.019Z,101861.47
2023-02-02T03:45:58.561Z,101860.66
2023-02-02T03:48:28.800Z,101872.97
2023-02-02T03:50:57.296Z,101861.78
2023-02-02T03:53:26.016Z,101868.06
2023-02-02T03:55:55.080Z,101866.44
2023-02-02T03:58:23.627Z,101866.59
2023-02-02T04:00:52.256Z,101866.72
2023-02-02T04:03:20.612Z,101872.97
2023-02-02T04:05:52.505Z,101866.16
2023-02-02T04:08:20.766Z,101872.34
2023-02-02T04:10:49.032Z,101875.00
2023-02-02T04:13:17.367Z,101875.88
2023-02-02T04:15:45.768Z,101878.50
2023-02-02T04:18:14.307Z,101874.13
2023-02-02T04:20:42.687Z,101873.19
2023-02-02T04:23:12.763Z,101874.88
2023-02-02T04:25:41.166Z,101873.13
2023-02-02T04:28:09.947Z,101880.06
2023-02-02T04:30:38.743Z,101880.00
2023-02-02T04:33:07.349Z,101899.09
2023-02-02T04:35:45.554Z,101892.63
2023-02-02T04:38:15.812Z,101899.97
2023-02-02T04:40:46.693Z,101898.66
2023-02-02T04:43:16.106Z,101904.19
2023-02-02T04:45:45.070Z,101886.41
2023-02-02T04:48:13.501Z,101895.72
2023-02-02T04:50:41.830Z,101888.44
2023-02-02T04:53:10.139Z,101894.25
2023-02-02T04:55:40.227Z,101904.53
2023-02-02T04:58:08.632Z,101905.28
2023-02-02T05:00:37.111Z,101905.28
2023-02-02T05:03:05.616Z,101907.84
2023-02-02T05:05:33.991Z,101908.66
2023-02-02T05:08:02.292Z,101904.31
2023-02-02T05:10:31.224Z,101906.91
2023-02-02T05:13:00.970Z,101915.53
2023-02-02T05:15:29.382Z,101914.66
2023-02-02T05:17:57.760Z,101901.63
2023-02-02T05:20:26.274Z,101911.16
2023-02-02T05:22:54.687Z,101915.50
2023-02-02T05:25:23.644Z,101910.22
2023-02-02T05:27:52.252Z,101913.69
2023-02-02T05:30:22.379Z,101916.22
2023-02-02T05:32:50.768Z,101911.88
2023-02-02T05:35:19.247Z,101921.38
2023-02-02T05:37:47.806Z,101923.13
2023-02-02T05:40:16.575Z,101913.50
2023-02-02T05:42:49.536Z,101911.75
2023-02-02T05:45:18.300Z,101914.34
2023-02-02T05:47:48.030Z,101911.75
2023-02-02T05:50:17.177Z,101915.16
2023-02-02T05:52:48.374Z,101915.16
2023-02-02T05:55:18.478Z,101918.50
2023-02-02T05:57:46.894Z,101926.41
2023-02-02T06:00:16.655Z,101930.78
2023-02-02T06:02:45.572Z,101929.81
2023-02-02T06:05:15.408Z,101938.53
2023-02-02T06:07:43.796Z,101935.94
2023-02-02T06:10:12.523Z,101937.69
2023-02-02T06:12:40.871Z,101944.63
2023-02-02T06:15:11.720Z,101938.56
2023-02-02T06:17:40.056Z,101937.75
2023-02-02T06:20:09.521Z,101939.53
2023-02-02T06:22:39.154Z,101939.53
2023-02-02T06:25:08.894Z,101938.72
2023-02-02T06:27:37.429Z,101940.53
2023-02-02T06:30:06.724Z,101937.94
2023-02-02T06:32:35.147Z,101945.75
2023-02-02T06:35:03.854Z,101943.06
2023-02-02T06:37:34.209Z,101944.03
2023-02-02T06:40:03.994Z,101953.59
2023-02-02T06:42:32.348Z,101955.25
2023-02-02T06:45:00.664Z,101958.78
2023-02-02T06:47:29.072Z,101955.38
2023-02-02T06:49:57.613Z,101957.22
2023-02-02T06:52:25.943Z,101957.28
2023-02-02T06:54:54.291Z,101967.78
2023-02-02T06:57:24.107Z,101966.16
2023-02-02T06:59:52.389Z,101971.47
2023-02-02T07:02:20.849Z,101977.69
2023-02-02T07:04:49.348Z,101982.13
2023-02-02T07:07:21.454Z,101989.16
2023-02-02T07:09:58.105Z,101992.78
2023-02-02T07:12:28.368Z,101993.72
2023-02-02T07:14:57.013Z,101996.44
2023-02-02T07:17:25.411Z,101989.56
2023-02-02T07:19:53.662Z,101989.69
2023-02-02T07:22:22.060Z,101995.84
2023-02-02T07:24:50.391Z,102004.59
2023-02-02T07:27:18.761Z,102005.53
2023-02-02T07:29:48.463Z,102003.88
2023-02-02T07:32:16.974Z,102008.25
2023-02-02T07:34:45.218Z,102011.81
2023-02-02T07:37:13.464Z,102011.09
2023-02-02T07:39:43.351Z,102019.00
2023-02-02T07:42:13.467Z,102018.31
2023-02-02T07:44:41.815Z,102020.97
2023-02-02T07:47:11.523Z,102023.66
2023-02-02T07:49:39.933Z,102032.38
2023-02-02T07:52:08.426Z,102033.28
2023-02-02T07:54:36.870Z,102032.44
2023-02-02T07:57:05.330Z,102028.13
2023-02-02T07:59:33.754Z,102042.09
2023-02-02T08:02:02.199Z,102036.06
2023-02-02T08:04:33.561Z,102043.19
2023-02-02T08:07:02.052Z,102039.72
2023-02-02T08:09:31.160Z,102053.78
2023-02-02T08:12:01.852Z,102054.81
2023-02-02T08:14:30.486Z,102054.03
2023-02-02T08:16:58.797Z,102057.66
2023-02-02T08:19:27.160Z,102061.25
2023-02-02T08:21:57.036Z,102061.38
2023-02-02T08:24:25.439Z,102063.25
2023-02-02T08:26:54.002Z,102068.59
2023-02-02T08:29:22.395Z,102074.78
2023-02-02T08:31:50.968Z,102074.78
2023-02-02T08:34:19.397Z,102080.94
2023-02-02T08:36:47.659Z,102082.84
2023-02-02T08:39:17.400Z,102080.22
2023-02-02T08:41:46.379Z,102086.31
2023-02-02T08:44:17.081Z,102087.19
2023-02-02T08:46:45.397Z,102093.31
2023-02-02T08:49:14.335Z,102097.69
2023-02-02T08:51:43.171Z,102098.53
2023-02-02T08:54:11.564Z,102096.75
2023-02-02T08:56:42.050Z,102109.84
2023-02-02T08:59:10.487Z,102103.75
2023-02-02T09:01:39.024Z,102108.97
2023-02-02T09:04:09.413Z,102112.38
2023-02-02T09:06:40.446Z,102119.25
2023-02-02T09:09:11.659Z,102121.03
2023-02-02T09:11:42.087Z,102123.66
2023-02-02T09:14:12.310Z,102123.66
2023-02-02T09:16:40.921Z,102119.38
2023-02-02T09:19:09.543Z,102122.19
2023-02-02T09:21:38.019Z,102123.38
2023-02-02T09:24:11.684Z,102129.03
2023-02-02T09:26:41.777Z,102121.50
2023-02-02T09:29:14.394Z,102123.50
2023-02-02T09:31:43.250Z,102126.38
2023-02-02T09:34:13.913Z,102133.59
2023-02-02T09:36:44.224Z,102132.13
2023-02-02T09:39:15.104Z,102148.00
2023-02-02T09:42:19.931Z,102146.44
2023-02-02T09:45:14.837Z,102147.44
2023-02-02T09:47:57.816Z,102151.97
2023-02-02T09:50:45.303Z,102156.41
2023-02-02T09:53:24.543Z,102162.63
2023-02-02T09:55:55.972Z,102164.59
2023-02-02T09:58:30.084Z,102161.28
2023-02-02T10:01:06.875Z,102170.13
2023-02-02T10:03:42.015Z,102168.59
2023-02-02T10:06:26.651Z,102179.94
2023-02-02T10:09:01.003Z,102180.78
2023-02-02T10:11:35.614Z,102182.56
2023-02-02T10:14:14.351Z,102172.25
2023-02-02T10:16:43.319Z,102176.59
2023-02-02T10:19:13.681Z,102179.34
2023-02-02T10:21:49.682Z,102176.00
2023-02-02T10:24:21.995Z,102183.22
2023-02-02T10:26:53.561Z,102181.75
2023-02-02T10:29:48.012Z,102190.59
2023-02-02T10:32:24.112Z,102188.19
2023-02-02T10:35:28.632Z,102193.50
2023-02-02T10:38:03.151Z,102199.75
2023-02-02T10:40:48.378Z,102191.91
2023-02-02T10:43:54.570Z,102193.69
2023-02-02T10:46:27.512Z,102191.22
2023-02-02T10:49:12.999Z,102190.47
2023-02-02T10:51:42.213Z,102189.41
2023-02-02T10:54:31.064Z,102199.38
2023-02-02T10:57:02.327Z,102205.97
2023-02-02T10:59:34.818Z,102206.69
2023-02-02T11:02:19.965Z,102215.25
2023-02-02T11:05:06.365Z,102222.09
2023-02-02T11:07:34.774Z,102220.19
2023-02-02T11:10:03.125Z,102214.84
2023-02-02T11:12:36.763Z,102218.22
2023-02-02T11:15:09.028Z,102217.34
2023-02-02T11:17:39.680Z,102234.75
2023-02-02T11:20:26.881Z,102227.56
2023-02-02T11:23:03.169Z,102222.34
2023-02-02T11:25:35.515Z,102231.13
2023-02-02T11:28:19.000Z,102237.22
2023-02-02T11:30:52.607Z,102240.00
2023-02-02T11:33:30.319Z,102233.09
2023-02-02T11:36:01.055Z,102232.38
2023-02-02T11:38:30.315Z,102245.38
2023-02-02T11:41:03.741Z,102243.72
2023-02-02T11:43:41.019Z,102242.81
2023-02-02T11:46:21.467Z,102239.34
2023-02-02T11:48:58.805Z,102244.63
2023-02-02T11:51:29.534Z,102241.19
2023-02-02T11:54:06.788Z,102238.59
2023-02-02T11:56:38.233Z,102233.38
2023-02-02T11:59:06.794Z,102231.56
2023-02-02T12:01:39.649Z,102226.28
2023-02-02T12:04:26.532Z,102227.94
2023-02-02T12:06:55.113Z,102227.22
2023-02-02T12:09:25.881Z,102229.19
2023-02-02T12:12:03.340Z,102231.13
2023-02-02T12:14:44.122Z,102233.75
2023-02-02T12:17:27.697Z,102228.44
2023-02-02T12:20:33.474Z,102227.47
2023-02-02T12:23:36.953Z,102226.34
2023-02-02T12:26:30.553Z,102218.44
2023-02-02T12:29:28.276Z,102221.13
2023-02-02T12:32:17.960Z,102220.81
2023-02-02T12:35:00.684Z,102217.13
2023-02-02T12:37:51.549Z,102215.38
2023-02-02T12:40:43.695Z,102224.25
2023-02-02T12:43:27.189Z,102224.25
2023-02-02T12:46:23.190Z,102226.13
2023-02-02T12:49:08.361Z,102207.84
2023-02-02T12:51:54.252Z,102202.78
2023-02-02T12:54:53.127Z,102198.69
2023-02-02T12:57:35.446Z,102200.59
2023-02-02T13:00:28.162Z,102195.53
2023-02-02T13:03:11.705Z,102192.31
2023-02-02T13:05:55.663Z,102188.19
2023-02-02T13:08:30.593Z,102190.94
2023-02-02T13:11:28.236Z,102192.78
2023-02-02T13:13:59.618Z,102196.25
2023-02-02T13:16:31.556Z,102197.91
2023-02-02T13:19:08.051Z,102189.88
2023-02-02T13:21:38.509Z,102197.63
2023-02-02T13:24:10.958Z,102191.59
2023-02-02T13:26:45.745Z,102197.63
2023-02-02T13:29:34.064Z,102191.47
2023-02-02T13:32:22.595Z,102192.31
2023-02-02T13:34:56.862Z,102194.00
2023-02-02T13:37:37.108Z,102196.69
2023-02-02T13:40:16.991Z,102190.00
2023-02-02T13:42:53.465Z,102196.25
2023-02-02T13:45:41.439Z,102198.00
2023-02-02T13:48:25.603Z,102196.16
2023-02-02T13:51:43.374Z,102202.94
2023-02-02T13:54:55.199Z,102205.59
2023-02-02T13:58:05.354Z,102202.16
2023-02-02T14:00:41.019Z,102193.56
2023-02-02T14:03:38.702Z,102196.19
2023-02-02T14:06:12.303Z,102196.91
2023-02-02T14:08:48.949Z,102195.09
2023-02-02T14:11:28.110Z,102210.63
2023-02-02T14:14:18.655Z,102201.97
2023-02-02T14:16:52.416Z,102198.34
2023-02-02T14:19:55.260Z,102187.84
2023-02-02T14:22:50.988Z,102184.34
2023-02-02T14:25:55.654Z,102186.97
2023-02-02T14:28:57.188Z,102188.63
2023-02-02T14:31:43.532Z,102183.53
2023-02-02T14:34:35.715Z,102188.84
2023-02-02T14:37:39.600Z,102188.06
2023-02-02T14:40:44.880Z,102198.44
2023-02-02T14:43:41.295Z,102201.91
2023-02-02T14:46:48.200Z,102209.44
2023-02-02T14:49:29.100Z,102195.44
2023-02-02T14:52:05.670Z,102190.28
2023-02-02T14:54:39.270Z,102185.22
2023-02-02T14:57:26.387Z,102191.38
2023-02-02T14:59:56.503Z,102194.88
2023-02-02T15:02:33.095Z,102188.75
2023-02-02T15:05:40.427Z,102190.38
2023-02-02T15:08:26.195Z,102190.38
2023-02-02T15:11:32.088Z,102196.47
2023-02-02T15:14:14.175Z,102195.50
2023-02-02T15:16:44.023Z,102197.22
2023-02-02T15:19:25.864Z,102200.75
2023-02-02T15:21:58.570Z,102202.47
2023-02-02T15:24:31.045Z,102207.69
2023-02-02T15:27:03.127Z,102203.19
2023-02-02T15:29:42.750Z,102209.22
2023-02-02T15:32:17.173Z,102210.06
2023-02-02T15:34:50.385Z,102207.47
2023-02-02T15:37:24.875Z,102207.47
2023-02-02T15:39:59.905Z,102216.13
2023-02-02T15:42:56.508Z,102218.78
2023-02-02T15:45:43.554Z,102214.34
2023-02-02T15:48:23.905Z,102215.25
2023-02-02T15:50:57.669Z,102220.53
2023-02-02T15:53:29.327Z,102223.13
2023-02-02T15:55:59.365Z,102228.44
2023-02-02T15:58:33.604Z,102228.50
2023-02-02T16:01:06.741Z,102222.41
2023-02-02T16:03:46.789Z,102225.03
2023-02-02T16:06:15.346Z,102228.56
2023-02-02T16:08:44.476Z,102232.00
2023-02-02T16:11:17.318Z,102230.25
2023-02-02T16:13:58.813Z,102227.66
2023-02-02T16:16:30.059Z,102232.00
2023-02-02T16:19:14.694Z,102232.00
2023-02-02T16:21:49.702Z,102235.47
2023-02-02T16:24:24.508Z,102232.84
2023-02-02T16:26:56.995Z,102228.50
2023-02-02T16:29:28.066Z,102223.34
2023-02-02T16:31:58.377Z,102232.94
2023-02-02T16:34:48.170Z,102227.72
2023-02-02T16:37:27.712Z,102221.72
2023-02-02T16:39:59.035Z,102223.53
2023-02-02T16:42:31.632Z,102226.22
2023-02-02T16:45:01.725Z,102223.66
2023-02-02T16:47:40.564Z,102217.53
2023-02-02T16:50:32.206Z,102221.03
2023-02-02T16:53:04.560Z,102228.97
2023-02-02T16:55:49.984Z,102225.56
2023-02-02T16:58:24.017Z,102231.69
2023-02-02T17:01:14.083Z,102235.19
2023-02-02T17:03:51.435Z,102231.72
2023-02-02T17:06:35.700Z,102233.47
2023-02-02T17:09:35.198Z,102227.31
2023-02-02T17:12:14.335Z,102228.25
2023-02-02T17:14:56.677Z,102227.38
2023-02-02T17:17:25.451Z,102227.44
2023-02-02T17:19:54.015Z,102225.72
2023-02-02T17:22:25.328Z,102223.97
2023-02-02T17:24:54.107Z,102224.94
2023-02-02T17:27:29.150Z,102230.16
2023-02-02T17:30:01.379Z,102228.41
2023-02-02T17:32:29.770Z,102227.50
2023-02-02T17:34:58.185Z,102232.81
2023-02-02T17:37:26.539Z,102223.19
2023-02-02T17:39:54.854Z,102230.28
2023-02-02T17:42:26.779Z,102222.47
2023-02-02T17:44:55.337Z,102209.47
2023-02-02T17:47:25.111Z,102212.13
2023-02-02T17:49:53.652Z,102216.50
2023-02-02T17:52:22.360Z,102213.88
2023-02-02T17:54:50.702Z,102201.69
2023-02-02T17:57:20.157Z,102200.75
2023-02-02T17:59:48.549Z,102202.56
2023-02-02T18:02:17.759Z,102202.56
2023-02-02T18:04:59.273Z,102204.31
2023-02-02T18:07:27.603Z,102203.44
2023-02-02T18:09:55.977Z,102205.22
2023-02-02T18:12:25.342Z,102200.88
2023-02-02T18:14:55.790Z,102200.91
2023-02-02T18:17:26.280Z,102197.41
2023-02-02T18:19:56.734Z,102202.66
2023-02-02T18:22:36.025Z,102214.88
2023-02-02T18:25:13.809Z,102210.53
2023-02-02T18:27:51.590Z,102212.28
2023-02-02T18:30:29.294Z,102213.94
2023-02-02T18:32:57.642Z,102206.09
2023-02-02T18:35:28.422Z,102214.88
2023-02-02T18:37:57.841Z,102203.59
2023-02-02T18:40:26.265Z,102203.66
2023-02-02T18:42:54.862Z,102202.75
2023-02-02T18:45:23.715Z,102201.03
2023-02-02T18:47:52.415Z,102205.41
2023-02-02T18:50:22.138Z,102201.91
2023-02-02T18:52:51.807Z,102211.47
2023-02-02T18:55:20.165Z,102202.78
2023-02-02T18:57:48.649Z,102198.41
2023-02-02T19:00:17.522Z,102194.06
2023-02-02T19:02:45.910Z,102190.59
2023-02-02T19:05:31.706Z,102183.69
2023-02-02T19:08:03.420Z,102185.38
2023-02-02T19:10:31.923Z,102181.06
2023-02-02T19:13:13.370Z,102183.69
2023-02-02T19:15:42.424Z,102184.50
2023-02-02T19:18:17.014Z,102177.53
2023-02-02T19:20:46.126Z,102173.16
2023-02-02T19:23:19.131Z,102169.66
2023-02-02T19:25:51.660Z,102169.69
2023-02-02T19:28:29.307Z,102165.38
2023-02-02T19:31:00.105Z,102171.50
2023-02-02T19:33:38.603Z,102182.81
2023-02-02T19:36:12.465Z,102169.75
2023-02-02T19:38:42.437Z,102161.91
2023-02-02T19:41:20.273Z,102166.31
2023-02-02T19:43:49.057Z,102173.31
2023-02-02T19:46:22.517Z,102172.47
2023-02-02T19:48:55.695Z,102176.84
2023-02-02T19:51:42.967Z,102177.72
2023-02-02T19:54:29.738Z,102176.78
2023-02-02T19:57:01.826Z,102174.25
2023-02-02T19:59:36.244Z,102175.97
2023-02-02T20:02:53.595Z,102178.47
2023-02-02T20:05:24.338Z,102186.47
2023-02-02T20:08:02.389Z,102179.47
2023-02-02T20:10:42.562Z,102176.00
2023-02-02T20:13:22.400Z,102190.81
2023-02-02T20:15:54.684Z,102180.34
2023-02-02T20:18:35.483Z,102187.38
2023-02-02T20:21:08.952Z,102175.13
2023-02-02T20:23:42.568Z,102180.41
2023-02-02T20:26:24.313Z,102176.94
2023-02-02T20:28:54.573Z,102177.78
2023-02-02T20:31:26.592Z,102175.25
2023-02-02T20:33:57.591Z,102177.88
2023-02-02T20:36:36.773Z,102181.34
2023-02-02T20:39:28.916Z,102175.25
2023-02-02T20:41:58.863Z,102169.09
2023-02-02T20:44:29.475Z,102163.88
2023-02-02T20:47:00.386Z,102150.84
2023-02-02T20:49:31.729Z,102152.59
2023-02-02T20:52:03.653Z,102167.41
2023-02-02T20:54:32.834Z,102160.47
2023-02-02T20:57:03.214Z,102171.81
2023-02-02T20:59:31.601Z,102177.00
2023-02-02T21:02:00.811Z,102164.81
2023-02-02T21:04:29.687Z,102170.00
2023-02-02T21:07:00.449Z,102180.56
2023-02-02T21:09:28.987Z,102161.41
2023-02-02T21:11:57.334Z,102155.28
2023-02-02T21:14:27.130Z,102147.44
2023-02-02T21:17:12.695Z,102152.72
2023-02-02T21:19:42.622Z,102155.28
2023-02-02T21:22:11.283Z,102150.13
2023-02-02T21:24:39.683Z,102152.72
2023-02-02T21:27:08.994Z,102158.84
2023-02-02T21:29:38.970Z,102161.50
2023-02-02T21:32:07.607Z,102157.16
2023-02-02T21:34:37.692Z,102124.94
2023-02-02T21:37:13.679Z,102130.16
2023-02-02T21:39:48.130Z,102124.13
2023-02-02T21:42:18.892Z,102125.00
2023-02-02T21:44:54.206Z,102117.22
2023-02-02T21:47:34.159Z,102135.50
2023-02-02T21:50:15.862Z,102122.44
2023-02-02T21:52:44.388Z,102149.50
2023-02-02T21:55:32.786Z,102152.94
2023-02-02T21:58:02.601Z,102173.03
2023-02-02T22:00:34.953Z,102146.91
2023-02-02T22:03:03.613Z,102134.75
2023-02-02T22:05:37.838Z,102138.31
2023-02-02T22:08:22.703Z,102143.53
2023-02-02T22:10:51.109Z,102117.47
2023-02-02T22:13:21.953Z,102108.88
2023-02-02T22:15:54.011Z,102125.59
2023-02-02T22:18:24.853Z,102104.75
2023-02-02T22:20:56.563Z,102097.88
2023-02-02T22:23:28.932Z,102100.69
2023-02-02T22:25:59.829Z,102087.78
2023-02-02T22:28:31.527Z,102080.13
2023-02-02T22:31:01.717Z,102080.25
2023-02-02T22:33:30.035Z,102062.97
2023-02-02T22:35:58.359Z,102064.84
2023-02-02T22:38:27.168Z,102064.03
2023-02-02T22:40:55.770Z,102062.41
2023-02-02T22:43:24.090Z,102051.19
2023-02-02T22:45:52.490Z,102052.97
2023-02-02T22:48:22.248Z,102051.28
2023-02-02T22:50:50.566Z,102053.94
2023-02-02T22:53:18.914Z,102041.75
2023-02-02T22:55:47.247Z,102047.91
2023-02-02T22:58:15.551Z,102048.81
2023-02-02T23:00:43.855Z,102055.81
2023-02-02T23:03:12.324Z,102060.19
2023-02-02T23:05:42.156Z,102045.41
2023-02-02T23:08:10.528Z,102042.81
2023-02-02T23:10:39.008Z,102042.81
2023-02-02T23:13:08.251Z,102051.59
2023-02-02T23:15:36.892Z,102041.16
2023-02-02T23:18:06.042Z,102042.09
2023-02-02T23:20:34.675Z,102035.97
2023-02-02T23:23:05.312Z,102037.72
2023-02-02T23:25:33.827Z,102041.22
2023-02-02T23:28:02.151Z,102049.00
2023-02-02T23:30:30.545Z,102057.78
2023-02-02T23:32:59.011Z,102060.41
2023-02-02T23:35:27.339Z,102056.91
2023-02-02T23:37:55.664Z,102072.63
2023-02-02T23:40:25.704Z,102071.69
2023-02-02T23:42:54.273Z,102066.41
2023-02-02T23:45:22.689Z,102069.91
2023-02-02T23:47:50.991Z,102062.00
2023-02-02T23:50:19.512Z,102062.88
2023-02-02T23:52:47.951Z,102058.50
2023-02-02T23:55:16.791Z,102069.91
2023-02-02T23:57:46.565Z,102068.97
